sensor_id;sensor_type;location;lat;lon;timestamp;P1;durP1;ratioP1;P2;durP2;ratioP2
15633;SDS011;14654;48.898;8.308;2023-04-26T00:01:40;10.80;;;9.90;;
15633;SDS011;14654;48.898;8.308;2023-04-26T00:04:06;11.93;;;10.93;;
15633;SDS011;14654;48.898;8.308;2023-04-26T00:06:32;12.10;;;11.10;;
15633;SDS011;14654;48.898;8.308;2023-04-26T00:08:58;12.43;;;11.33;;
15633;SDS011;14654;48.898;8.308;2023-04-26T00:11:24;12.70;;;11.60;;
15633;SDS011;14654;48.898;8.308;2023-04-26T00:13:49;11.43;;;10.43;;
15633;SDS011;14654;48.898;8.308;2023-04-26T00:16:14;11.43;;;10.43;;
15633;SDS011;14654;48.898;8.308;2023-04-26T00:18:40;12.13;;;11.10;;
15633;SDS011;14654;48.898;8.308;2023-04-26T00:21:07;12.40;;;11.40;;
15633;SDS011;14654;48.898;8.308;2023-04-26T00:23:32;12.70;;;11.67;;
15633;SDS011;14654;48.898;8.308;2023-04-26T00:25:58;12.43;;;11.43;;
15633;SDS011;14654;48.898;8.308;2023-04-26T00:28:24;13.70;;;12.50;;
15633;SDS011;14654;48.898;8.308;2023-04-26T00:30:49;12.67;;;11.67;;
15633;SDS011;14654;48.898;8.308;2023-04-26T00:33:15;11.70;;;10.70;;
15633;SDS011;14654;48.898;8.308;2023-04-26T00:35:40;11.40;;;10.37;;
15633;SDS011;14654;48.898;8.308;2023-04-26T00:38:06;9.47;;;8.57;;
15633;SDS011;14654;48.898;8.308;2023-04-26T00:40:31;8.70;;;7.90;;
15633;SDS011;14654;48.898;8.308;2023-04-26T00:42:59;8.10;;;7.40;;
15633;SDS011;14654;48.898;8.308;2023-04-26T00:45:25;7.63;;;6.90;;
15633;SDS011;14654;48.898;8.308;2023-04-26T00:47:50;6.13;;;5.63;;
15633;SDS011;14654;48.898;8.308;2023-04-26T00:50:17;7.07;;;5.77;;
15633;SDS011;14654;48.898;8.308;2023-04-26T00:52:44;5.73;;;5.23;;
15633;SDS011;14654;48.898;8.308;2023-04-26T00:55:11;6.03;;;5.53;;
15633;SDS011;14654;48.898;8.308;2023-04-26T00:57:36;6.00;;;5.50;;
15633;SDS011;14654;48.898;8.308;2023-04-26T01:00:03;6.87;;;6.17;;
15633;SDS011;14654;48.898;8.308;2023-04-26T01:02:29;6.07;;;5.57;;
15633;SDS011;14654;48.898;8.308;2023-04-26T01:04:55;6.10;;;5.60;;
15633;SDS011;14654;48.898;8.308;2023-04-26T01:07:20;6.27;;;5.77;;
15633;SDS011;14654;48.898;8.308;2023-04-26T01:09:45;6.90;;;6.27;;
15633;SDS011;14654;48.898;8.308;2023-04-26T01:12:12;6.77;;;6.20;;
15633;SDS011;14654;48.898;8.308;2023-04-26T01:14:38;6.30;;;5.80;;
15633;SDS011;14654;48.898;8.308;2023-04-26T01:17:04;6.27;;;5.63;;
15633;SDS011;14654;48.898;8.308;2023-04-26T01:19:30;6.20;;;5.70;;
15633;SDS011;14654;48.898;8.308;2023-04-26T01:21:56;6.30;;;5.70;;
15633;SDS011;14654;48.898;8.308;2023-04-26T01:24:22;6.67;;;6.00;;
15633;SDS011;14654;48.898;8.308;2023-04-26T01:26:47;6.37;;;5.87;;
15633;SDS011;14654;48.898;8.308;2023-04-26T01:31:40;6.70;;;6.20;;
15633;SDS011;14654;48.898;8.308;2023-04-26T01:34:05;6.53;;;6.03;;
15633;SDS011;14654;48.898;8.308;2023-04-26T01:36:30;6.77;;;6.27;;
15633;SDS011;14654;48.898;8.308;2023-04-26T01:38:56;6.90;;;6.40;;
15633;SDS011;14654;48.898;8.308;2023-04-26T01:41:21;7.30;;;6.27;;
15633;SDS011;14654;48.898;8.308;2023-04-26T01:43:48;7.93;;;7.27;;
15633;SDS011;14654;48.898;8.308;2023-04-26T01:46:13;8.30;;;7.60;;
15633;SDS011;14654;48.898;8.308;2023-04-26T01:48:39;7.20;;;6.70;;
15633;SDS011;14654;48.898;8.308;2023-04-26T01:51:04;8.03;;;7.33;;
15633;SDS011;14654;48.898;8.308;2023-04-26T01:53:30;8.90;;;8.20;;
15633;SDS011;14654;48.898;8.308;2023-04-26T01:55:55;8.93;;;8.23;;
15633;SDS011;14654;48.898;8.308;2023-04-26T01:58:21;8.47;;;7.77;;
15633;SDS011;14654;48.898;8.308;2023-04-26T02:00:46;8.60;;;7.90;;
15633;SDS011;14654;48.898;8.308;2023-04-26T02:03:11;7.70;;;7.00;;
15633;SDS011;14654;48.898;8.308;2023-04-26T02:05:37;8.93;;;8.13;;
15633;SDS011;14654;48.898;8.308;2023-04-26T02:08:02;7.87;;;7.27;;
15633;SDS011;14654;48.898;8.308;2023-04-26T02:10:28;7.80;;;7.20;;
15633;SDS011;14654;48.898;8.308;2023-04-26T02:12:53;7.10;;;6.50;;
15633;SDS011;14654;48.898;8.308;2023-04-26T02:15:19;6.80;;;6.30;;
15633;SDS011;14654;48.898;8.308;2023-04-26T02:17:45;7.47;;;6.87;;
15633;SDS011;14654;48.898;8.308;2023-04-26T02:20:11;6.83;;;6.33;;
15633;SDS011;14654;48.898;8.308;2023-04-26T02:22:36;7.47;;;6.87;;
15633;SDS011;14654;48.898;8.308;2023-04-26T02:25:02;8.27;;;7.53;;
15633;SDS011;14654;48.898;8.308;2023-04-26T02:27:27;7.30;;;6.70;;
15633;SDS011;14654;48.898;8.308;2023-04-26T02:29:52;7.30;;;6.70;;
15633;SDS011;14654;48.898;8.308;2023-04-26T02:32:18;6.87;;;6.37;;
15633;SDS011;14654;48.898;8.308;2023-04-26T02:34:43;6.50;;;6.00;;
15633;SDS011;14654;48.898;8.308;2023-04-26T02:37:09;7.03;;;6.53;;
15633;SDS011;14654;48.898;8.308;2023-04-26T02:39:34;6.50;;;6.00;;
15633;SDS011;14654;48.898;8.308;2023-04-26T02:42:00;6.73;;;6.20;;
15633;SDS011;14654;48.898;8.308;2023-04-26T02:44:27;7.80;;;7.20;;
15633;SDS011;14654;48.898;8.308;2023-04-26T02:46:53;7.30;;;6.70;;
15633;SDS011;14654;48.898;8.308;2023-04-26T02:49:19;6.67;;;6.17;;
15633;SDS011;14654;48.898;8.308;2023-04-26T02:51:44;6.67;;;6.17;;
15633;SDS011;14654;48.898;8.308;2023-04-26T02:54:09;6.67;;;6.17;;
15633;SDS011;14654;48.898;8.308;2023-04-26T02:56:35;7.30;;;6.70;;
15633;SDS011;14654;48.898;8.308;2023-04-26T02:59:00;6.60;;;6.10;;
15633;SDS011;14654;48.898;8.308;2023-04-26T03:01:25;6.60;;;6.10;;
15633;SDS011;14654;48.898;8.308;2023-04-26T03:03:51;7.00;;;6.50;;
15633;SDS011;14654;48.898;8.308;2023-04-26T03:06:16;5.87;;;5.37;;
15633;SDS011;14654;48.898;8.308;2023-04-26T03:08:41;5.83;;;5.43;;
15633;SDS011;14654;48.898;8.308;2023-04-26T03:11:07;6.43;;;5.93;;
15633;SDS011;14654;48.898;8.308;2023-04-26T03:13:32;7.40;;;6.80;;
15633;SDS011;14654;48.898;8.308;2023-04-26T03:15:58;6.30;;;5.80;;
15633;SDS011;14654;48.898;8.308;2023-04-26T03:18:23;7.17;;;6.57;;
15633;SDS011;14654;48.898;8.308;2023-04-26T03:20:48;7.93;;;7.23;;
15633;SDS011;14654;48.898;8.308;2023-04-26T03:23:14;7.50;;;6.90;;
15633;SDS011;14654;48.898;8.308;2023-04-26T03:25:39;7.00;;;6.40;;
15633;SDS011;14654;48.898;8.308;2023-04-26T03:28:05;7.63;;;6.93;;
15633;SDS011;14654;48.898;8.308;2023-04-26T03:30:30;7.67;;;7.07;;
15633;SDS011;14654;48.898;8.308;2023-04-26T03:32:55;8.20;;;7.50;;
15633;SDS011;14654;48.898;8.308;2023-04-26T03:35:21;7.60;;;6.90;;
15633;SDS011;14654;48.898;8.308;2023-04-26T03:37:46;7.00;;;6.47;;
15633;SDS011;14654;48.898;8.308;2023-04-26T03:40:12;7.10;;;6.50;;
15633;SDS011;14654;48.898;8.308;2023-04-26T03:42:37;7.40;;;6.80;;
15633;SDS011;14654;48.898;8.308;2023-04-26T03:45:03;7.23;;;6.63;;
15633;SDS011;14654;48.898;8.308;2023-04-26T03:47:29;7.63;;;7.03;;
15633;SDS011;14654;48.898;8.308;2023-04-26T03:49:55;8.10;;;7.40;;
15633;SDS011;14654;48.898;8.308;2023-04-26T03:52:21;9.07;;;8.20;;
15633;SDS011;14654;48.898;8.308;2023-04-26T03:54:46;10.07;;;9.07;;
15633;SDS011;14654;48.898;8.308;2023-04-26T03:57:12;9.13;;;8.23;;
15633;SDS011;14654;48.898;8.308;2023-04-26T03:59:37;11.03;;;10.00;;
15633;SDS011;14654;48.898;8.308;2023-04-26T04:02:02;10.67;;;9.67;;
15633;SDS011;14654;48.898;8.308;2023-04-26T04:04:28;11.33;;;10.23;;
15633;SDS011;14654;48.898;8.308;2023-04-26T04:06:53;10.53;;;9.53;;
15633;SDS011;14654;48.898;8.308;2023-04-26T04:09:18;11.83;;;10.77;;
15633;SDS011;14654;48.898;8.308;2023-04-26T04:11:44;11.30;;;10.20;;
15633;SDS011;14654;48.898;8.308;2023-04-26T04:14:09;10.20;;;9.20;;
15633;SDS011;14654;48.898;8.308;2023-04-26T04:16:34;9.27;;;8.50;;
15633;SDS011;14654;48.898;8.308;2023-04-26T04:19:00;10.03;;;8.90;;
15633;SDS011;14654;48.898;8.308;2023-04-26T04:21:25;12.30;;;9.00;;
15633;SDS011;14654;48.898;8.308;2023-04-26T04:23:51;9.37;;;8.60;;
15633;SDS011;14654;48.898;8.308;2023-04-26T04:26:17;10.27;;;8.70;;
15633;SDS011;14654;48.898;8.308;2023-04-26T04:28:43;8.13;;;7.53;;
15633;SDS011;14654;48.898;8.308;2023-04-26T04:31:09;8.17;;;7.37;;
15633;SDS011;14654;48.898;8.308;2023-04-26T04:33:35;7.40;;;6.70;;
15633;SDS011;14654;48.898;8.308;2023-04-26T04:36:01;8.00;;;7.30;;
15633;SDS011;14654;48.898;8.308;2023-04-26T04:38:26;7.90;;;7.20;;
15633;SDS011;14654;48.898;8.308;2023-04-26T04:40:53;8.67;;;7.10;;
15633;SDS011;14654;48.898;8.308;2023-04-26T04:43:18;7.63;;;6.60;;
15633;SDS011;14654;48.898;8.308;2023-04-26T04:45:44;6.90;;;6.30;;
15633;SDS011;14654;48.898;8.308;2023-04-26T04:48:09;6.63;;;6.13;;
15633;SDS011;14654;48.898;8.308;2023-04-26T04:50:36;7.93;;;6.00;;
15633;SDS011;14654;48.898;8.308;2023-04-26T04:53:03;6.40;;;5.80;;
15633;SDS011;14654;48.898;8.308;2023-04-26T04:55:28;12.13;;;5.60;;
15633;SDS011;14654;48.898;8.308;2023-04-26T04:57:54;9.13;;;5.17;;
15633;SDS011;14654;48.898;8.308;2023-04-26T05:00:20;9.47;;;5.00;;
15633;SDS011;14654;48.898;8.308;2023-04-26T05:02:45;5.33;;;4.93;;
15633;SDS011;14654;48.898;8.308;2023-04-26T05:05:11;7.17;;;5.53;;
15633;SDS011;14654;48.898;8.308;2023-04-26T05:07:36;5.87;;;5.47;;
15633;SDS011;14654;48.898;8.308;2023-04-26T05:10:02;7.40;;;5.77;;
15633;SDS011;14654;48.898;8.308;2023-04-26T05:12:27;5.80;;;5.20;;
15633;SDS011;14654;48.898;8.308;2023-04-26T05:14:53;7.77;;;6.00;;
15633;SDS011;14654;48.898;8.308;2023-04-26T05:17:18;5.73;;;5.33;;
15633;SDS011;14654;48.898;8.308;2023-04-26T05:19:44;5.30;;;4.90;;
15633;SDS011;14654;48.898;8.308;2023-04-26T05:22:09;5.37;;;4.97;;
15633;SDS011;14654;48.898;8.308;2023-04-26T05:24:37;5.83;;;5.23;;
15633;SDS011;14654;48.898;8.308;2023-04-26T05:27:02;5.30;;;4.90;;
15633;SDS011;14654;48.898;8.308;2023-04-26T05:29:28;4.60;;;4.30;;
15633;SDS011;14654;48.898;8.308;2023-04-26T05:31:55;4.83;;;4.50;;
15633;SDS011;14654;48.898;8.308;2023-04-26T05:34:21;5.70;;;5.30;;
15633;SDS011;14654;48.898;8.308;2023-04-26T05:36:47;4.90;;;4.60;;
15633;SDS011;14654;48.898;8.308;2023-04-26T05:39:13;4.87;;;4.57;;
15633;SDS011;14654;48.898;8.308;2023-04-26T05:41:38;4.97;;;4.57;;
15633;SDS011;14654;48.898;8.308;2023-04-26T05:44:03;4.60;;;4.23;;
15633;SDS011;14654;48.898;8.308;2023-04-26T05:46:28;4.57;;;4.17;;
15633;SDS011;14654;48.898;8.308;2023-04-26T05:48:54;4.10;;;3.80;;
15633;SDS011;14654;48.898;8.308;2023-04-26T05:51:19;4.27;;;3.87;;
15633;SDS011;14654;48.898;8.308;2023-04-26T05:53:45;4.33;;;4.03;;
15633;SDS011;14654;48.898;8.308;2023-04-26T05:56:10;3.80;;;3.50;;
15633;SDS011;14654;48.898;8.308;2023-04-26T05:58:35;4.27;;;3.63;;
15633;SDS011;14654;48.898;8.308;2023-04-26T06:01:01;3.80;;;3.50;;
15633;SDS011;14654;48.898;8.308;2023-04-26T06:03:26;3.63;;;3.33;;
15633;SDS011;14654;48.898;8.308;2023-04-26T06:05:51;3.33;;;3.03;;
15633;SDS011;14654;48.898;8.308;2023-04-26T06:08:16;4.83;;;3.30;;
15633;SDS011;14654;48.898;8.308;2023-04-26T06:10:42;3.53;;;3.07;;
15633;SDS011;14654;48.898;8.308;2023-04-26T06:13:07;4.70;;;3.30;;
15633;SDS011;14654;48.898;8.308;2023-04-26T06:15:32;3.50;;;3.20;;
15633;SDS011;14654;48.898;8.308;2023-04-26T06:17:58;3.67;;;3.37;;
15633;SDS011;14654;48.898;8.308;2023-04-26T06:20:23;5.07;;;4.60;;
15633;SDS011;14654;48.898;8.308;2023-04-26T06:22:49;5.10;;;3.33;;
15633;SDS011;14654;48.898;8.308;2023-04-26T06:25:15;4.07;;;3.60;;
15633;SDS011;14654;48.898;8.308;2023-04-26T06:27:40;3.27;;;3.00;;
15633;SDS011;14654;48.898;8.308;2023-04-26T06:30:06;4.00;;;3.60;;
15633;SDS011;14654;48.898;8.308;2023-04-26T06:32:31;5.00;;;3.80;;
15633;SDS011;14654;48.898;8.308;2023-04-26T06:34:57;6.97;;;4.07;;
15633;SDS011;14654;48.898;8.308;2023-04-26T06:37:22;5.97;;;4.20;;
15633;SDS011;14654;48.898;8.308;2023-04-26T06:39:48;4.43;;;4.03;;
15633;SDS011;14654;48.898;8.308;2023-04-26T06:42:13;4.73;;;3.80;;
15633;SDS011;14654;48.898;8.308;2023-04-26T06:44:39;4.90;;;4.40;;
15633;SDS011;14654;48.898;8.308;2023-04-26T06:47:04;5.00;;;4.50;;
15633;SDS011;14654;48.898;8.308;2023-04-26T06:49:33;5.73;;;4.40;;
15633;SDS011;14654;48.898;8.308;2023-04-26T06:51:59;5.53;;;5.03;;
15633;SDS011;14654;48.898;8.308;2023-04-26T06:54:28;6.57;;;5.13;;
15633;SDS011;14654;48.898;8.308;2023-04-26T06:56:54;9.77;;;5.33;;
15633;SDS011;14654;48.898;8.308;2023-04-26T06:59:19;6.00;;;5.40;;
15633;SDS011;14654;48.898;8.308;2023-04-26T07:01:44;5.40;;;4.90;;
15633;SDS011;14654;48.898;8.308;2023-04-26T07:04:10;8.00;;;5.50;;
15633;SDS011;14654;48.898;8.308;2023-04-26T07:06:36;5.23;;;4.70;;
15633;SDS011;14654;48.898;8.308;2023-04-26T07:09:02;5.93;;;4.83;;
15633;SDS011;14654;48.898;8.308;2023-04-26T07:11:28;7.90;;;5.40;;
15633;SDS011;14654;48.898;8.308;2023-04-26T07:13:54;9.77;;;5.40;;
15633;SDS011;14654;48.898;8.308;2023-04-26T07:16:20;8.77;;;5.40;;
15633;SDS011;14654;48.898;8.308;2023-04-26T07:18:45;5.70;;;5.13;;
15633;SDS011;14654;48.898;8.308;2023-04-26T07:21:12;8.70;;;5.70;;
15633;SDS011;14654;48.898;8.308;2023-04-26T07:23:38;6.03;;;5.50;;
15633;SDS011;14654;48.898;8.308;2023-04-26T07:26:03;7.40;;;5.70;;
15633;SDS011;14654;48.898;8.308;2023-04-26T07:28:29;6.43;;;5.47;;
15633;SDS011;14654;48.898;8.308;2023-04-26T07:30:58;6.60;;;6.00;;
15633;SDS011;14654;48.898;8.308;2023-04-26T07:33:24;6.73;;;5.73;;
15633;SDS011;14654;48.898;8.308;2023-04-26T07:35:56;6.23;;;5.67;;
15633;SDS011;14654;48.898;8.308;2023-04-26T07:38:23;8.57;;;6.33;;
15633;SDS011;14654;48.898;8.308;2023-04-26T07:40:49;8.00;;;6.07;;
15633;SDS011;14654;48.898;8.308;2023-04-26T07:43:15;6.67;;;6.07;;
15633;SDS011;14654;48.898;8.308;2023-04-26T07:45:41;7.90;;;5.80;;
15633;SDS011;14654;48.898;8.308;2023-04-26T07:48:07;7.00;;;5.90;;
15633;SDS011;14654;48.898;8.308;2023-04-26T07:50:32;6.67;;;5.53;;
15633;SDS011;14654;48.898;8.308;2023-04-26T07:52:57;9.40;;;6.13;;
15633;SDS011;14654;48.898;8.308;2023-04-26T07:55:23;9.17;;;5.43;;
15633;SDS011;14654;48.898;8.308;2023-04-26T07:57:48;7.70;;;5.67;;
15633;SDS011;14654;48.898;8.308;2023-04-26T08:00:13;7.27;;;5.37;;
15633;SDS011;14654;48.898;8.308;2023-04-26T08:02:40;7.40;;;5.60;;
15633;SDS011;14654;48.898;8.308;2023-04-26T08:05:06;6.03;;;5.40;;
15633;SDS011;14654;48.898;8.308;2023-04-26T08:07:31;6.73;;;4.83;;
15633;SDS011;14654;48.898;8.308;2023-04-26T08:09:57;10.77;;;5.17;;
15633;SDS011;14654;48.898;8.308;2023-04-26T08:12:22;14.30;;;6.17;;
15633;SDS011;14654;48.898;8.308;2023-04-26T08:14:47;7.07;;;5.07;;
15633;SDS011;14654;48.898;8.308;2023-04-26T08:17:13;9.70;;;5.60;;
15633;SDS011;14654;48.898;8.308;2023-04-26T08:19:38;7.73;;;5.00;;
15633;SDS011;14654;48.898;8.308;2023-04-26T08:22:05;7.17;;;5.07;;
15633;SDS011;14654;48.898;8.308;2023-04-26T08:24:31;6.83;;;5.00;;
15633;SDS011;14654;48.898;8.308;2023-04-26T08:26:56;5.77;;;4.33;;
15633;SDS011;14654;48.898;8.308;2023-04-26T08:29:23;6.83;;;4.37;;
15633;SDS011;14654;48.898;8.308;2023-04-26T08:31:48;5.03;;;4.27;;
15633;SDS011;14654;48.898;8.308;2023-04-26T08:34:14;6.40;;;4.60;;
15633;SDS011;14654;48.898;8.308;2023-04-26T08:36:40;6.47;;;3.83;;
15633;SDS011;14654;48.898;8.308;2023-04-26T08:39:06;5.37;;;3.97;;
15633;SDS011;14654;48.898;8.308;2023-04-26T08:41:35;7.43;;;5.50;;
15633;SDS011;14654;48.898;8.308;2023-04-26T08:44:03;7.30;;;4.93;;
15633;SDS011;14654;48.898;8.308;2023-04-26T08:46:33;6.13;;;4.67;;
15633;SDS011;14654;48.898;8.308;2023-04-26T08:49:09;6.07;;;4.80;;
15633;SDS011;14654;48.898;8.308;2023-04-26T08:51:44;4.60;;;3.70;;
15633;SDS011;14654;48.898;8.308;2023-04-26T08:54:10;3.70;;;3.33;;
15633;SDS011;14654;48.898;8.308;2023-04-26T08:56:36;4.70;;;3.47;;
15633;SDS011;14654;48.898;8.308;2023-04-26T08:59:03;5.90;;;3.63;;
15633;SDS011;14654;48.898;8.308;2023-04-26T09:01:29;6.00;;;4.23;;
15633;SDS011;14654;48.898;8.308;2023-04-26T09:03:56;4.40;;;3.40;;
15633;SDS011;14654;48.898;8.308;2023-04-26T09:06:22;4.10;;;3.50;;
15633;SDS011;14654;48.898;8.308;2023-04-26T09:08:48;4.87;;;3.13;;
15633;SDS011;14654;48.898;8.308;2023-04-26T09:11:17;4.53;;;3.03;;
15633;SDS011;14654;48.898;8.308;2023-04-26T09:13:42;5.27;;;3.43;;
15633;SDS011;14654;48.898;8.308;2023-04-26T09:16:07;6.53;;;3.70;;
15633;SDS011;14654;48.898;8.308;2023-04-26T09:18:33;10.00;;;4.03;;
15633;SDS011;14654;48.898;8.308;2023-04-26T09:23:27;3.50;;;2.50;;
15633;SDS011;14654;48.898;8.308;2023-04-26T09:25:53;4.97;;;3.07;;
15633;SDS011;14654;48.898;8.308;2023-04-26T09:28:19;4.17;;;2.70;;
15633;SDS011;14654;48.898;8.308;2023-04-26T09:30:46;5.70;;;2.70;;
15633;SDS011;14654;48.898;8.308;2023-04-26T09:33:12;4.30;;;2.77;;
15633;SDS011;14654;48.898;8.308;2023-04-26T09:35:38;4.20;;;2.20;;
15633;SDS011;14654;48.898;8.308;2023-04-26T09:38:05;4.07;;;2.43;;
15633;SDS011;14654;48.898;8.308;2023-04-26T09:40:32;3.83;;;2.43;;
15633;SDS011;14654;48.898;8.308;2023-04-26T09:43:05;3.27;;;2.33;;
15633;SDS011;14654;48.898;8.308;2023-04-26T09:45:45;4.27;;;2.73;;
15633;SDS011;14654;48.898;8.308;2023-04-26T09:50:50;6.23;;;2.60;;
15633;SDS011;14654;48.898;8.308;2023-04-26T09:53:26;3.67;;;2.70;;
15633;SDS011;14654;48.898;8.308;2023-04-26T09:58:35;4.40;;;2.20;;
15633;SDS011;14654;48.898;8.308;2023-04-26T10:01:25;2.73;;;2.17;;
15633;SDS011;14654;48.898;8.308;2023-04-26T10:03:59;4.57;;;2.23;;
15633;SDS011;14654;48.898;8.308;2023-04-26T10:06:26;4.50;;;2.77;;
15633;SDS011;14654;48.898;8.308;2023-04-26T10:08:52;3.80;;;2.20;;
15633;SDS011;14654;48.898;8.308;2023-04-26T10:11:19;2.13;;;1.93;;
15633;SDS011;14654;48.898;8.308;2023-04-26T10:13:45;5.80;;;2.60;;
15633;SDS011;14654;48.898;8.308;2023-04-26T10:16:10;4.30;;;2.57;;
15633;SDS011;14654;48.898;8.308;2023-04-26T10:18:36;3.63;;;2.20;;
15633;SDS011;14654;48.898;8.308;2023-04-26T10:23:50;4.43;;;2.57;;
15633;SDS011;14654;48.898;8.308;2023-04-26T10:29:17;5.03;;;3.00;;
15633;SDS011;14654;48.898;8.308;2023-04-26T10:34:28;4.30;;;2.40;;
15633;SDS011;14654;48.898;8.308;2023-04-26T10:39:36;2.50;;;2.10;;
15633;SDS011;14654;48.898;8.308;2023-04-26T10:42:18;5.23;;;2.33;;
15633;SDS011;14654;48.898;8.308;2023-04-26T10:44:54;3.87;;;2.20;;
15633;SDS011;14654;48.898;8.308;2023-04-26T10:50:07;3.80;;;2.10;;
15633;SDS011;14654;48.898;8.308;2023-04-26T10:52:35;4.97;;;2.27;;
15633;SDS011;14654;48.898;8.308;2023-04-26T10:55:02;4.67;;;2.43;;
15633;SDS011;14654;48.898;8.308;2023-04-26T11:00:14;4.53;;;2.33;;
15633;SDS011;14654;48.898;8.308;2023-04-26T11:08:06;3.83;;;2.30;;
15633;SDS011;14654;48.898;8.308;2023-04-26T11:13:21;3.47;;;2.30;;
15633;SDS011;14654;48.898;8.308;2023-04-26T11:15:51;2.40;;;1.50;;
15633;SDS011;14654;48.898;8.308;2023-04-26T11:18:18;2.17;;;1.60;;
15633;SDS011;14654;48.898;8.308;2023-04-26T11:20:44;2.03;;;1.83;;
15633;SDS011;14654;48.898;8.308;2023-04-26T11:23:10;3.77;;;2.00;;
15633;SDS011;14654;48.898;8.308;2023-04-26T11:25:35;5.17;;;1.97;;
15633;SDS011;14654;48.898;8.308;2023-04-26T11:28:03;2.43;;;1.87;;
15633;SDS011;14654;48.898;8.308;2023-04-26T11:30:31;3.23;;;1.77;;
15633;SDS011;14654;48.898;8.308;2023-04-26T11:32:57;2.30;;;1.60;;
15633;SDS011;14654;48.898;8.308;2023-04-26T11:35:23;2.97;;;1.90;;
15633;SDS011;14654;48.898;8.308;2023-04-26T11:37:50;3.83;;;2.20;;
15633;SDS011;14654;48.898;8.308;2023-04-26T11:40:16;3.50;;;2.23;;
15633;SDS011;14654;48.898;8.308;2023-04-26T11:42:42;1.93;;;1.60;;
15633;SDS011;14654;48.898;8.308;2023-04-26T11:45:09;3.30;;;2.03;;
15633;SDS011;14654;48.898;8.308;2023-04-26T11:47:35;2.93;;;1.97;;
15633;SDS011;14654;48.898;8.308;2023-04-26T11:50:01;3.03;;;2.10;;
15633;SDS011;14654;48.898;8.308;2023-04-26T11:52:27;3.73;;;2.30;;
15633;SDS011;14654;48.898;8.308;2023-04-26T11:55:06;3.93;;;2.13;;
15633;SDS011;14654;48.898;8.308;2023-04-26T11:57:32;3.73;;;1.93;;
15633;SDS011;14654;48.898;8.308;2023-04-26T12:02:38;2.67;;;1.83;;
15633;SDS011;14654;48.898;8.308;2023-04-26T12:05:19;2.70;;;2.00;;
15633;SDS011;14654;48.898;8.308;2023-04-26T12:07:48;4.00;;;2.60;;
15633;SDS011;14654;48.898;8.308;2023-04-26T12:10:15;5.77;;;2.33;;
15633;SDS011;14654;48.898;8.308;2023-04-26T12:12:48;5.03;;;2.53;;
15633;SDS011;14654;48.898;8.308;2023-04-26T12:15:15;4.40;;;2.30;;
15633;SDS011;14654;48.898;8.308;2023-04-26T12:17:50;3.47;;;2.27;;
15633;SDS011;14654;48.898;8.308;2023-04-26T12:20:16;3.17;;;2.03;;
15633;SDS011;14654;48.898;8.308;2023-04-26T12:22:55;3.13;;;1.70;;
15633;SDS011;14654;48.898;8.308;2023-04-26T12:25:32;3.57;;;2.37;;
15633;SDS011;14654;48.898;8.308;2023-04-26T12:27:59;2.70;;;1.90;;
15633;SDS011;14654;48.898;8.308;2023-04-26T12:30:25;3.63;;;1.80;;
15633;SDS011;14654;48.898;8.308;2023-04-26T12:32:52;1.60;;;1.33;;
15633;SDS011;14654;48.898;8.308;2023-04-26T12:35:18;2.63;;;1.70;;
15633;SDS011;14654;48.898;8.308;2023-04-26T12:37:43;2.83;;;1.87;;
15633;SDS011;14654;48.898;8.308;2023-04-26T12:40:09;3.70;;;1.77;;
15633;SDS011;14654;48.898;8.308;2023-04-26T12:42:35;2.40;;;1.70;;
15633;SDS011;14654;48.898;8.308;2023-04-26T12:45:01;3.33;;;1.60;;
15633;SDS011;14654;48.898;8.308;2023-04-26T12:47:26;2.50;;;1.47;;
15633;SDS011;14654;48.898;8.308;2023-04-26T12:49:52;2.23;;;1.57;;
15633;SDS011;14654;48.898;8.308;2023-04-26T12:52:17;3.43;;;1.73;;
15633;SDS011;14654;48.898;8.308;2023-04-26T12:54:42;5.63;;;2.23;;
15633;SDS011;14654;48.898;8.308;2023-04-26T12:57:08;2.80;;;1.90;;
15633;SDS011;14654;48.898;8.308;2023-04-26T12:59:34;4.30;;;2.43;;
15633;SDS011;14654;48.898;8.308;2023-04-26T13:02:00;3.27;;;1.80;;
15633;SDS011;14654;48.898;8.308;2023-04-26T13:04:25;3.10;;;2.10;;
15633;SDS011;14654;48.898;8.308;2023-04-26T13:06:50;3.53;;;2.30;;
15633;SDS011;14654;48.898;8.308;2023-04-26T13:09:15;2.30;;;2.03;;
15633;SDS011;14654;48.898;8.308;2023-04-26T13:11:41;2.17;;;1.70;;
15633;SDS011;14654;48.898;8.308;2023-04-26T13:14:06;2.20;;;1.60;;
15633;SDS011;14654;48.898;8.308;2023-04-26T13:16:32;4.27;;;2.40;;
15633;SDS011;14654;48.898;8.308;2023-04-26T13:18:57;2.33;;;1.87;;
15633;SDS011;14654;48.898;8.308;2023-04-26T13:21:23;3.50;;;2.07;;
15633;SDS011;14654;48.898;8.308;2023-04-26T13:23:48;2.33;;;1.63;;
15633;SDS011;14654;48.898;8.308;2023-04-26T13:26:13;1.90;;;1.70;;
15633;SDS011;14654;48.898;8.308;2023-04-26T13:28:41;1.97;;;1.70;;
15633;SDS011;14654;48.898;8.308;2023-04-26T13:31:06;6.13;;;2.30;;
15633;SDS011;14654;48.898;8.308;2023-04-26T13:33:32;4.10;;;1.80;;
15633;SDS011;14654;48.898;8.308;2023-04-26T13:35:57;4.03;;;2.30;;
15633;SDS011;14654;48.898;8.308;2023-04-26T13:38:23;3.87;;;2.13;;
15633;SDS011;14654;48.898;8.308;2023-04-26T13:40:48;3.37;;;2.10;;
15633;SDS011;14654;48.898;8.308;2023-04-26T13:43:13;3.57;;;1.87;;
15633;SDS011;14654;48.898;8.308;2023-04-26T13:45:39;3.33;;;2.20;;
15633;SDS011;14654;48.898;8.308;2023-04-26T13:48:04;3.93;;;2.30;;
15633;SDS011;14654;48.898;8.308;2023-04-26T13:50:29;3.77;;;2.40;;
15633;SDS011;14654;48.898;8.308;2023-04-26T13:52:55;3.40;;;2.00;;
15633;SDS011;14654;48.898;8.308;2023-04-26T13:55:20;3.47;;;2.00;;
15633;SDS011;14654;48.898;8.308;2023-04-26T13:57:46;4.53;;;2.17;;
15633;SDS011;14654;48.898;8.308;2023-04-26T14:00:11;3.20;;;2.13;;
15633;SDS011;14654;48.898;8.308;2023-04-26T14:02:38;3.77;;;2.20;;
15633;SDS011;14654;48.898;8.308;2023-04-26T14:05:03;3.10;;;2.17;;
15633;SDS011;14654;48.898;8.308;2023-04-26T14:07:29;2.37;;;1.97;;
15633;SDS011;14654;48.898;8.308;2023-04-26T14:09:54;3.00;;;2.00;;
15633;SDS011;14654;48.898;8.308;2023-04-26T14:12:19;2.27;;;1.80;;
15633;SDS011;14654;48.898;8.308;2023-04-26T14:14:45;2.57;;;1.93;;
15633;SDS011;14654;48.898;8.308;2023-04-26T14:17:11;2.43;;;1.63;;
15633;SDS011;14654;48.898;8.308;2023-04-26T14:19:37;3.63;;;2.40;;
15633;SDS011;14654;48.898;8.308;2023-04-26T14:22:02;3.90;;;2.27;;
15633;SDS011;14654;48.898;8.308;2023-04-26T14:24:28;3.00;;;2.30;;
15633;SDS011;14654;48.898;8.308;2023-04-26T14:26:53;3.13;;;2.20;;
15633;SDS011;14654;48.898;8.308;2023-04-26T14:29:18;3.60;;;2.80;;
15633;SDS011;14654;48.898;8.308;2023-04-26T14:31:44;2.90;;;2.40;;
15633;SDS011;14654;48.898;8.308;2023-04-26T14:34:09;3.50;;;2.43;;
15633;SDS011;14654;48.898;8.308;2023-04-26T14:36:34;3.97;;;2.30;;
15633;SDS011;14654;48.898;8.308;2023-04-26T14:39:00;3.33;;;2.10;;
15633;SDS011;14654;48.898;8.308;2023-04-26T14:41:26;2.60;;;2.07;;
15633;SDS011;14654;48.898;8.308;2023-04-26T14:43:51;2.00;;;1.80;;
15633;SDS011;14654;48.898;8.308;2023-04-26T14:46:16;2.83;;;2.00;;
15633;SDS011;14654;48.898;8.308;2023-04-26T14:48:42;2.87;;;1.87;;
15633;SDS011;14654;48.898;8.308;2023-04-26T14:51:08;1.83;;;1.70;;
15633;SDS011;14654;48.898;8.308;2023-04-26T14:53:34;3.57;;;2.90;;
15633;SDS011;14654;48.898;8.308;2023-04-26T14:55:59;3.70;;;2.90;;
15633;SDS011;14654;48.898;8.308;2023-04-26T14:58:25;3.03;;;2.13;;
15633;SDS011;14654;48.898;8.308;2023-04-26T15:00:52;3.90;;;2.60;;
15633;SDS011;14654;48.898;8.308;2023-04-26T15:03:18;4.07;;;2.63;;
15633;SDS011;14654;48.898;8.308;2023-04-26T15:05:44;3.57;;;2.50;;
15633;SDS011;14654;48.898;8.308;2023-04-26T15:08:09;4.47;;;2.50;;
15633;SDS011;14654;48.898;8.308;2023-04-26T15:10:35;4.43;;;2.70;;
15633;SDS011;14654;48.898;8.308;2023-04-26T15:13:01;3.07;;;2.43;;
15633;SDS011;14654;48.898;8.308;2023-04-26T15:15:26;2.60;;;2.40;;
15633;SDS011;14654;48.898;8.308;2023-04-26T15:17:51;3.37;;;2.50;;